createdAt,value
2018-07-24T00:02:23.026Z,21.30
2018-07-24T00:04:51.788Z,21.30
2018-07-24T00:07:20.486Z,21.20
2018-07-24T00:09:49.242Z,21.20
2018-07-24T00:12:18.041Z,21.20
2018-07-24T00:14:46.749Z,21.20
2018-07-24T00:17:15.476Z,21.10
2018-07-24T00:19:44.182Z,21.10
2018-07-24T00:22:12.953Z,21.00
2018-07-24T00:24:41.666Z,21.00
2018-07-24T00:27:10.469Z,21.00
2018-07-24T00:29:39.160Z,20.90
2018-07-24T00:32:07.945Z,20.80
2018-07-24T00:34:36.619Z,20.80
2018-07-24T00:37:05.402Z,20.70
2018-07-24T00:39:34.225Z,20.70
2018-07-24T00:42:02.957Z,20.60
2018-07-24T00:44:31.676Z,20.60
2018-07-24T00:47:00.395Z,20.50
2018-07-24T00:49:29.134Z,20.50
2018-07-24T00:51:57.867Z,20.50
2018-07-24T00:54:26.574Z,20.50
2018-07-24T00:56:55.416Z,20.40
2018-07-24T00:59:24.104Z,20.40
2018-07-24T01:01:53.025Z,20.40
2018-07-24T01:04:21.788Z,20.40
2018-07-24T01:06:50.543Z,20.40
2018-07-24T01:09:26.936Z,20.30
2018-07-24T01:11:55.760Z,20.20
2018-07-24T01:14:24.625Z,20.20
2018-07-24T01:16:53.356Z,20.20
2018-07-24T01:19:22.147Z,20.20
2018-07-24T01:21:50.923Z,20.10
2018-07-24T01:24:19.642Z,20.10
2018-07-24T01:26:48.344Z,20.10
2018-07-24T01:29:17.124Z,20.10
2018-07-24T01:31:45.890Z,20.10
2018-07-24T01:34:14.629Z,20.10
2018-07-24T01:36:43.376Z,20.10
2018-07-24T01:39:12.457Z,20.10
2018-07-24T01:41:41.652Z,20.10
2018-07-24T01:44:10.606Z,20.10
2018-07-24T01:46:39.310Z,20.10
2018-07-24T01:49:08.031Z,20.10
2018-07-24T01:51:36.769Z,20.10
2018-07-24T01:54:06.371Z,20.00
2018-07-24T01:56:35.101Z,20.00
2018-07-24T01:59:03.820Z,19.90
2018-07-24T02:01:32.549Z,19.90
2018-07-24T02:04:01.301Z,19.90
2018-07-24T02:06:30.262Z,19.90
2018-07-24T02:08:59.117Z,19.90
2018-07-24T02:11:27.824Z,19.80
2018-07-24T02:13:56.579Z,19.90
2018-07-24T02:16:25.317Z,19.80
2018-07-24T02:18:54.049Z,19.80
2018-07-24T02:21:22.818Z,19.80
2018-07-24T02:23:51.613Z,19.70
2018-07-24T02:26:20.384Z,19.70
2018-07-24T02:28:49.119Z,19.60
2018-07-24T02:31:18.009Z,19.60
2018-07-24T02:33:46.780Z,19.50
2018-07-24T02:36:15.487Z,19.50
2018-07-24T02:38:44.221Z,19.50
2018-07-24T02:41:12.919Z,19.40
2018-07-24T02:43:41.661Z,19.40
2018-07-24T02:46:10.419Z,19.30
2018-07-24T02:48:39.169Z,19.30
2018-07-24T02:51:07.902Z,19.20
2018-07-24T02:53:36.630Z,19.20
2018-07-24T02:56:05.757Z,19.20
2018-07-24T02:58:34.491Z,19.20
2018-07-24T03:01:03.261Z,19.20
2018-07-24T03:03:32.021Z,19.20
2018-07-24T03:08:29.184Z,19.20
2018-07-24T03:10:57.901Z,19.10
2018-07-24T03:13:28.723Z,19.10
2018-07-24T03:15:57.816Z,19.20
2018-07-24T03:18:26.556Z,19.20
2018-07-24T03:20:55.301Z,19.20
2018-07-24T03:23:24.068Z,19.10
2018-07-24T03:25:52.813Z,19.10
2018-07-24T03:28:21.542Z,19.10
2018-07-24T03:30:50.311Z,19.10
2018-07-24T03:33:19.079Z,19.00
2018-07-24T03:38:16.233Z,19.00
2018-07-24T03:40:44.985Z,19.10
2018-07-24T03:43:14.398Z,19.20
2018-07-24T03:45:43.351Z,19.60
2018-07-24T03:48:12.077Z,19.90
2018-07-24T03:50:40.836Z,20.20
2018-07-24T03:53:09.570Z,20.30
2018-07-24T03:55:38.266Z,20.10
2018-07-24T03:58:07.137Z,20.10
2018-07-24T04:00:41.732Z,20.00
2018-07-24T04:03:10.575Z,20.00
2018-07-24T04:05:39.419Z,20.00
2018-07-24T04:08:15.683Z,20.00
2018-07-24T04:10:44.435Z,20.00
2018-07-24T04:13:13.786Z,20.10
2018-07-24T04:15:42.517Z,20.60
2018-07-24T04:18:11.264Z,21.30
2018-07-24T04:20:40.093Z,22.00
2018-07-24T04:23:08.824Z,22.80
2018-07-24T04:25:37.560Z,23.50
2018-07-24T04:28:06.346Z,24.20
2018-07-24T04:30:35.081Z,24.80
2018-07-24T04:33:03.960Z,25.50
2018-07-24T04:35:33.001Z,26.30
2018-07-24T04:40:30.301Z,28.30
2018-07-24T04:45:27.437Z,30.20
2018-07-24T04:47:56.220Z,31.00
2018-07-24T04:50:24.997Z,31.40
2018-07-24T04:52:53.858Z,31.20
2018-07-24T04:55:22.623Z,30.80
2018-07-24T04:57:51.445Z,30.70
2018-07-24T05:00:20.161Z,30.90
2018-07-24T05:02:48.915Z,31.20
2018-07-24T05:05:17.653Z,31.30
2018-07-24T05:07:46.500Z,31.40
2018-07-24T05:10:15.315Z,31.50
2018-07-24T05:12:44.068Z,30.90
2018-07-24T05:15:12.857Z,29.00
2018-07-24T05:17:41.652Z,27.50
2018-07-24T05:20:10.442Z,26.50
2018-07-24T05:22:39.210Z,25.80
2018-07-24T05:25:08.040Z,25.30
2018-07-24T05:27:36.769Z,25.00
2018-07-24T05:30:06.182Z,24.60
2018-07-24T05:32:34.905Z,24.40
2018-07-24T05:35:03.755Z,24.20
2018-07-24T05:37:32.485Z,24.10
2018-07-24T05:40:01.408Z,23.90
2018-07-24T05:44:59.111Z,23.70
2018-07-24T05:47:28.509Z,23.60
2018-07-24T05:49:58.314Z,23.50
2018-07-24T05:52:27.240Z,23.50
2018-07-24T05:54:56.034Z,23.40
2018-07-24T05:57:24.840Z,23.40
2018-07-24T05:59:54.349Z,23.30
2018-07-24T06:02:23.164Z,23.30
2018-07-24T06:04:51.928Z,23.40
2018-07-24T06:07:20.696Z,23.30
2018-07-24T06:09:49.521Z,23.30
2018-07-24T06:12:18.340Z,23.40
2018-07-24T06:14:47.177Z,23.40
2018-07-24T06:17:15.940Z,23.50
2018-07-24T06:19:44.765Z,23.50
2018-07-24T06:22:13.549Z,23.50
2018-07-24T06:24:42.265Z,23.50
2018-07-24T06:27:11.054Z,23.50
2018-07-24T06:29:39.854Z,23.60
2018-07-24T06:32:08.607Z,23.70
2018-07-24T06:34:37.327Z,23.70
2018-07-24T06:37:06.371Z,23.80
2018-07-24T06:39:35.131Z,23.90
2018-07-24T06:42:03.865Z,23.90
2018-07-24T06:44:32.720Z,23.90
2018-07-24T06:47:01.446Z,23.90
2018-07-24T06:49:30.273Z,24.00
2018-07-24T06:54:27.639Z,24.10
2018-07-24T06:56:56.485Z,24.10
2018-07-24T06:59:25.223Z,24.20
2018-07-24T07:01:54.019Z,24.20
2018-07-24T07:04:22.754Z,24.30
2018-07-24T07:06:51.609Z,24.30
2018-07-24T07:09:20.545Z,24.40
2018-07-24T07:11:49.313Z,24.40
2018-07-24T07:14:18.164Z,24.50
2018-07-24T07:16:46.885Z,24.60
2018-07-24T07:19:16.132Z,24.60
2018-07-24T07:21:44.853Z,24.60
2018-07-24T07:24:13.754Z,24.70
2018-07-24T07:26:43.634Z,24.70
2018-07-24T07:29:12.390Z,24.80
2018-07-24T07:31:41.080Z,24.90
2018-07-24T07:34:09.823Z,24.90
2018-07-24T07:36:38.616Z,25.00
2018-07-24T07:39:10.118Z,25.10
2018-07-24T07:41:39.113Z,25.20
2018-07-24T07:44:07.968Z,25.20
2018-07-24T07:46:36.741Z,25.30
2018-07-24T07:49:06.113Z,25.40
2018-07-24T07:51:34.933Z,25.40
2018-07-24T07:54:03.681Z,25.40
2018-07-24T07:56:32.442Z,25.40
2018-07-24T07:59:01.520Z,25.50
2018-07-24T08:01:30.257Z,25.50
2018-07-24T08:03:59.054Z,25.60
2018-07-24T08:06:27.849Z,25.60
2018-07-24T08:08:56.637Z,25.70
2018-07-24T08:11:25.419Z,25.80
2018-07-24T08:13:54.266Z,25.90
2018-07-24T08:16:23.093Z,26.00
2018-07-24T08:18:51.932Z,26.00
2018-07-24T08:21:20.796Z,26.10
2018-07-24T08:23:49.570Z,26.20
2018-07-24T08:26:18.436Z,26.30
2018-07-24T08:28:47.244Z,26.30
2018-07-24T08:31:16.286Z,26.30
2018-07-24T08:33:45.152Z,26.40
2018-07-24T08:36:13.985Z,26.30
2018-07-24T08:38:42.726Z,26.30
2018-07-24T08:41:11.530Z,26.30
2018-07-24T08:43:40.384Z,26.40
2018-07-24T08:46:09.464Z,26.40
2018-07-24T08:48:38.347Z,26.40
2018-07-24T08:51:07.129Z,26.40
2018-07-24T08:53:36.283Z,26.50
2018-07-24T08:56:04.777Z,26.50
2018-07-24T08:58:33.508Z,26.50
2018-07-24T09:01:02.959Z,26.50
2018-07-24T09:03:31.780Z,26.50
2018-07-24T09:06:00.508Z,26.50
2018-07-24T09:08:29.218Z,26.60
2018-07-24T09:10:57.968Z,26.70
2018-07-24T09:13:26.775Z,26.60
2018-07-24T09:15:56.007Z,26.70
2018-07-24T09:18:24.768Z,26.80
2018-07-24T09:23:22.036Z,26.80
2018-07-24T09:25:50.785Z,26.80
2018-07-24T09:28:19.563Z,27.00
2018-07-24T09:30:48.270Z,27.10
2018-07-24T09:33:17.215Z,27.20
2018-07-24T09:35:46.015Z,27.20
2018-07-24T09:38:14.809Z,27.30
2018-07-24T09:40:43.564Z,27.30
2018-07-24T09:43:12.303Z,27.40
2018-07-24T09:45:41.566Z,27.40
2018-07-24T09:48:10.310Z,27.40
2018-07-24T09:50:39.165Z,27.50
2018-07-24T09:53:07.894Z,27.60
2018-07-24T09:55:36.596Z,27.60
2018-07-24T09:58:05.359Z,27.50
2018-07-24T10:00:39.479Z,27.50
2018-07-24T10:03:08.283Z,27.60
2018-07-24T10:05:37.044Z,27.60
2018-07-24T10:08:05.884Z,27.60
2018-07-24T10:10:34.770Z,27.60
2018-07-24T10:13:03.754Z,27.70
2018-07-24T10:15:32.352Z,27.70
2018-07-24T10:18:01.110Z,27.60
2018-07-24T10:20:29.912Z,27.60
2018-07-24T10:22:58.682Z,27.70
2018-07-24T10:25:27.433Z,27.80
2018-07-24T10:27:56.120Z,27.80
2018-07-24T10:30:24.904Z,27.90
2018-07-24T10:32:53.674Z,28.00
2018-07-24T10:35:22.516Z,28.00
2018-07-24T10:37:51.364Z,28.10
2018-07-24T10:40:20.232Z,28.20
2018-07-24T10:42:49.022Z,28.20
2018-07-24T10:45:17.869Z,28.20
2018-07-24T10:47:46.669Z,28.20
2018-07-24T10:50:16.312Z,28.20
2018-07-24T10:52:45.263Z,28.20
2018-07-24T10:55:14.067Z,28.30
2018-07-24T10:57:42.839Z,28.40
2018-07-24T11:00:11.654Z,28.50
2018-07-24T11:02:40.412Z,28.50
2018-07-24T11:05:09.687Z,28.50
2018-07-24T11:07:38.437Z,28.50
2018-07-24T11:10:07.322Z,28.60
2018-07-24T11:12:36.176Z,28.60
2018-07-24T11:15:05.033Z,28.70
2018-07-24T11:17:34.080Z,28.80
2018-07-24T11:20:02.847Z,28.90
2018-07-24T11:22:31.795Z,28.90
2018-07-24T11:25:00.492Z,28.90
2018-07-24T11:27:29.384Z,28.90
2018-07-24T11:29:58.249Z,29.00
2018-07-24T11:32:27.042Z,29.00
2018-07-24T11:34:56.820Z,29.00
2018-07-24T11:37:25.622Z,29.00
2018-07-24T11:39:54.455Z,29.10
2018-07-24T11:42:24.985Z,29.20
2018-07-24T11:44:53.823Z,29.20
2018-07-24T11:47:22.604Z,29.20
2018-07-24T11:49:51.445Z,29.30
2018-07-24T11:52:20.504Z,29.20
2018-07-24T11:54:49.355Z,29.20
2018-07-24T11:57:18.104Z,29.30
2018-07-24T11:59:46.845Z,29.20
2018-07-24T12:02:16.329Z,29.10
2018-07-24T12:04:45.140Z,29.20
2018-07-24T12:07:14.823Z,29.10
2018-07-24T12:09:43.572Z,29.20
2018-07-24T12:12:12.267Z,29.20
2018-07-24T12:14:41.005Z,29.30
2018-07-24T12:17:09.729Z,29.30
2018-07-24T12:19:38.580Z,29.40
2018-07-24T12:22:07.649Z,29.50
2018-07-24T12:24:36.407Z,29.60
2018-07-24T12:27:05.383Z,29.60
2018-07-24T12:29:34.278Z,29.60
2018-07-24T12:32:03.059Z,29.70
2018-07-24T12:34:31.846Z,29.80
2018-07-24T12:37:00.591Z,29.80
2018-07-24T12:39:29.445Z,29.90
2018-07-24T12:41:58.202Z,29.90
2018-07-24T12:44:27.057Z,29.90
2018-07-24T12:46:55.925Z,29.90
2018-07-24T12:49:24.719Z,29.90
2018-07-24T12:51:53.514Z,30.10
2018-07-24T12:54:22.284Z,30.20
2018-07-24T12:56:51.156Z,30.30
2018-07-24T12:59:19.961Z,30.20
2018-07-24T13:01:48.831Z,30.30
2018-07-24T13:04:17.713Z,30.30
2018-07-24T13:06:46.484Z,30.40
2018-07-24T13:09:15.425Z,30.40
2018-07-24T13:11:44.533Z,30.40
2018-07-24T13:14:13.288Z,30.40
2018-07-24T13:16:42.236Z,30.50
2018-07-24T13:19:10.996Z,30.50
2018-07-24T13:21:39.883Z,30.60
2018-07-24T13:24:08.679Z,30.60
2018-07-24T13:26:37.504Z,30.50
2018-07-24T13:29:06.267Z,30.50
2018-07-24T13:31:35.087Z,30.60
2018-07-24T13:34:03.762Z,30.60
2018-07-24T13:36:32.522Z,30.50
2018-07-24T13:39:01.309Z,30.60
2018-07-24T13:41:30.082Z,30.60
2018-07-24T13:43:58.850Z,30.60
2018-07-24T13:46:27.598Z,30.60
2018-07-24T13:48:56.446Z,30.80
2018-07-24T13:51:25.227Z,30.80
2018-07-24T13:53:53.985Z,30.80
2018-07-24T13:56:22.805Z,30.80
2018-07-24T13:58:51.772Z,30.80
2018-07-24T14:01:20.497Z,30.80
2018-07-24T14:03:49.379Z,30.80
2018-07-24T14:06:18.165Z,30.80
2018-07-24T14:08:46.977Z,30.90
2018-07-24T14:11:15.881Z,31.00
2018-07-24T14:13:44.810Z,31.00
2018-07-24T14:16:13.499Z,31.00
2018-07-24T14:18:42.247Z,31.10
2018-07-24T14:21:10.997Z,31.10
2018-07-24T14:23:39.868Z,31.10
2018-07-24T14:26:08.908Z,31.10
2018-07-24T14:28:37.699Z,31.10
2018-07-24T14:31:06.500Z,31.00
2018-07-24T14:33:35.380Z,31.10
2018-07-24T14:36:04.185Z,31.10
2018-07-24T14:38:32.976Z,31.10
2018-07-24T14:41:01.818Z,31.20
2018-07-24T14:43:30.642Z,31.20
2018-07-24T14:45:59.511Z,31.20
2018-07-24T14:48:28.239Z,31.30
2018-07-24T14:50:56.994Z,31.30
2018-07-24T14:53:25.832Z,31.30
2018-07-24T14:55:54.679Z,31.30
2018-07-24T14:58:23.502Z,31.30
2018-07-24T15:00:52.329Z,31.30
2018-07-24T15:03:21.066Z,31.50
2018-07-24T15:05:50.970Z,31.50
2018-07-24T15:08:19.839Z,31.60
2018-07-24T15:10:48.833Z,31.70
2018-07-24T15:13:17.810Z,31.70
2018-07-24T15:15:46.693Z,31.70
2018-07-24T15:18:15.493Z,31.70
2018-07-24T15:23:12.862Z,31.70
2018-07-24T15:25:41.623Z,31.90
2018-07-24T15:28:10.394Z,31.90
2018-07-24T15:30:39.149Z,32.10
2018-07-24T15:33:07.924Z,32.10
2018-07-24T15:35:36.779Z,32.10
2018-07-24T15:38:06.111Z,32.20
2018-07-24T15:40:34.907Z,32.30
2018-07-24T15:43:03.668Z,32.40
2018-07-24T15:45:32.606Z,32.50
2018-07-24T15:48:01.586Z,32.60
2018-07-24T15:50:30.375Z,32.70
2018-07-24T15:52:59.252Z,32.80
2018-07-24T15:55:28.074Z,32.80
2018-07-24T15:57:56.927Z,32.80
2018-07-24T16:00:25.656Z,33.00
2018-07-24T16:02:54.664Z,33.10
2018-07-24T16:05:23.539Z,33.20
2018-07-24T16:07:52.435Z,33.30
2018-07-24T16:10:21.306Z,33.50
2018-07-24T16:12:50.170Z,33.60
2018-07-24T16:15:19.149Z,33.60
2018-07-24T16:17:47.950Z,33.50
2018-07-24T16:20:16.853Z,33.60
2018-07-24T16:22:45.753Z,33.60
2018-07-24T16:27:43.100Z,33.50
2018-07-24T16:30:11.935Z,33.50
2018-07-24T16:32:40.700Z,33.30
2018-07-24T16:35:11.527Z,33.20
2018-07-24T16:37:40.456Z,33.00
2018-07-24T16:40:09.220Z,32.90
2018-07-24T16:42:38.028Z,32.90
2018-07-24T16:45:06.789Z,33.10
2018-07-24T16:47:35.641Z,33.20
2018-07-24T16:50:05.655Z,33.30
2018-07-24T16:52:34.594Z,33.50
2018-07-24T16:55:03.408Z,33.70
2018-07-24T16:57:32.280Z,33.80
2018-07-24T17:00:01.132Z,34.00
2018-07-24T17:02:29.943Z,33.90
2018-07-24T17:04:59.700Z,33.90
2018-07-24T17:07:28.577Z,34.00
2018-07-24T17:09:57.423Z,34.20
2018-07-24T17:12:26.263Z,34.20
2018-07-24T17:14:55.009Z,34.10
2018-07-24T17:17:23.818Z,34.10
2018-07-24T17:19:52.735Z,34.00
2018-07-24T17:22:21.456Z,34.20
2018-07-24T17:24:50.294Z,34.40
2018-07-24T17:27:19.290Z,34.40
2018-07-24T17:29:48.341Z,34.30
2018-07-24T17:32:17.333Z,34.30
2018-07-24T17:34:46.168Z,34.70
2018-07-24T17:37:15.113Z,34.80
2018-07-24T17:39:43.978Z,34.90
2018-07-24T17:42:12.858Z,35.10
2018-07-24T17:44:41.884Z,35.20
2018-07-24T17:47:10.763Z,35.20
2018-07-24T17:49:39.702Z,35.20
2018-07-24T17:52:08.565Z,35.00
2018-07-24T17:54:37.427Z,34.60
2018-07-24T17:57:06.336Z,34.50
2018-07-24T17:59:35.258Z,34.20
2018-07-24T18:02:04.190Z,34.00
2018-07-24T18:04:33.003Z,34.00
2018-07-24T18:07:01.875Z,34.10
2018-07-24T18:09:30.716Z,34.40
2018-07-24T18:11:59.901Z,34.50
2018-07-24T18:14:28.664Z,34.50
2018-07-24T18:16:57.445Z,34.50
2018-07-24T18:19:26.167Z,34.40
2018-07-24T18:21:54.928Z,34.40
2018-07-24T18:24:23.713Z,34.20
2018-07-24T18:26:52.548Z,34.20
2018-07-24T18:29:21.683Z,34.20
2018-07-24T18:31:50.725Z,34.20
2018-07-24T18:34:19.757Z,34.20
2018-07-24T18:36:48.748Z,34.20
2018-07-24T18:39:17.729Z,34.00
2018-07-24T18:41:46.799Z,33.80
2018-07-24T18:44:15.919Z,33.70
2018-07-24T18:46:44.865Z,33.60
2018-07-24T18:49:13.807Z,33.60
2018-07-24T18:51:42.851Z,33.50
2018-07-24T18:54:11.726Z,33.30
2018-07-24T18:56:40.605Z,33.10
2018-07-24T18:59:11.882Z,32.90
2018-07-24T19:01:40.768Z,32.40
2018-07-24T19:04:11.565Z,31.80
2018-07-24T19:06:40.558Z,31.50
2018-07-24T19:09:10.591Z,31.10
2018-07-24T19:11:39.848Z,30.60
2018-07-24T19:14:08.725Z,30.40
2018-07-24T19:16:37.805Z,30.20
2018-07-24T19:19:06.662Z,30.00
2018-07-24T19:21:35.499Z,29.80
2018-07-24T19:24:04.619Z,29.50
2018-07-24T19:26:33.603Z,29.30
2018-07-24T19:29:05.827Z,29.10
2018-07-24T19:31:34.679Z,29.00
2018-07-24T19:34:11.954Z,28.80
2018-07-24T19:36:41.043Z,28.60
2018-07-24T19:39:11.411Z,28.40
2018-07-24T19:41:40.856Z,28.30
2018-07-24T19:44:13.018Z,28.20
2018-07-24T19:46:42.491Z,28.10
2018-07-24T19:51:39.909Z,27.90
2018-07-24T19:54:08.788Z,27.80
2018-07-24T19:56:38.485Z,27.70
2018-07-24T19:59:07.878Z,27.60
2018-07-24T20:01:37.944Z,27.60
2018-07-24T20:04:08.316Z,27.50
2018-07-24T20:09:09.461Z,27.30
2018-07-24T20:11:38.346Z,27.20
2018-07-24T20:14:07.281Z,27.20
2018-07-24T20:16:36.094Z,27.10
2018-07-24T20:19:05.088Z,27.00
2018-07-24T20:21:33.833Z,26.90
2018-07-24T20:24:02.704Z,26.80
2018-07-24T20:26:31.525Z,26.70
2018-07-24T20:31:28.865Z,26.60
2018-07-24T20:33:57.631Z,26.50
2018-07-24T20:38:54.850Z,26.50
2018-07-24T20:41:23.605Z,26.40
2018-07-24T20:46:20.788Z,26.30
2018-07-24T20:48:49.571Z,26.20
2018-07-24T20:51:18.316Z,26.20
2018-07-24T20:53:47.156Z,26.10
2018-07-24T20:56:15.977Z,26.00
2018-07-24T20:58:47.293Z,26.00
2018-07-24T21:01:16.120Z,26.00
2018-07-24T21:03:45.590Z,25.90
2018-07-24T21:06:14.401Z,25.90
2018-07-24T21:08:43.117Z,25.80
2018-07-24T21:11:12.046Z,25.80
2018-07-24T21:13:40.795Z,25.70
2018-07-24T21:16:09.573Z,25.70
2018-07-24T21:18:38.390Z,25.60
2018-07-24T21:21:07.310Z,25.60
2018-07-24T21:23:36.822Z,25.50
2018-07-24T21:26:05.757Z,25.50
2018-07-24T21:28:34.494Z,25.50
2018-07-24T21:31:03.460Z,25.50
2018-07-24T21:33:32.170Z,25.50
2018-07-24T21:36:00.925Z,25.50
2018-07-24T21:38:29.629Z,25.30
2018-07-24T21:40:58.956Z,25.30
2018-07-24T21:43:27.709Z,25.30
2018-07-24T21:48:32.378Z,25.30
2018-07-24T21:51:09.432Z,25.30
2018-07-24T21:53:57.519Z,25.20
2018-07-24T21:56:50.321Z,25.20
2018-07-24T21:59:27.105Z,25.20
2018-07-24T22:02:18.287Z,25.10
2018-07-24T22:04:56.886Z,25.20
2018-07-24T22:10:15.728Z,25.10
2018-07-24T22:16:14.776Z,25.10
2018-07-24T22:19:04.961Z,25.10
2018-07-24T22:22:06.720Z,25.10
2018-07-24T22:24:44.385Z,25.10
2018-07-24T22:32:55.789Z,25.10
2018-07-24T22:35:45.624Z,25.00
2018-07-24T22:38:33.047Z,24.90
2018-07-24T22:41:20.862Z,24.90
2018-07-24T22:44:10.385Z,24.90
2018-07-24T22:46:48.340Z,24.80
2018-07-24T22:49:26.143Z,24.80
2018-07-24T22:51:59.397Z,24.80
2018-07-24T22:54:35.663Z,24.70
2018-07-24T22:57:13.300Z,24.70
2018-07-24T22:59:45.928Z,24.60
2018-07-24T23:02:27.016Z,24.60
2018-07-24T23:05:00.594Z,24.60
2018-07-24T23:07:29.358Z,24.60
2018-07-24T23:09:58.100Z,24.60
2018-07-24T23:12:26.828Z,24.60
2018-07-24T23:14:55.557Z,24.60
2018-07-24T23:17:31.977Z,24.60
2018-07-24T23:20:00.685Z,24.50
2018-07-24T23:22:34.953Z,24.50
2018-07-24T23:25:03.845Z,24.50
2018-07-24T23:27:32.592Z,24.40
2018-07-24T23:30:01.318Z,24.40
2018-07-24T23:32:30.102Z,24.30
2018-07-24T23:34:58.944Z,24.20
2018-07-24T23:37:27.705Z,24.20
2018-07-24T23:39:56.453Z,24.20
2018-07-24T23:42:25.158Z,24.10
2018-07-24T23:44:53.888Z,24.10
2018-07-24T23:47:55.512Z,24.10
2018-07-24T23:50:24.252Z,24.00
2018-07-24T23:52:52.952Z,24.10
2018-07-24T23:55:21.734Z,24.10
2018-07-24T23:57:50.485Z,24.10
